Time;durP1;ratioP1;P1;durP2;ratioP2;P2;SDS_P1;SDS_P2;PMS_P1;PMS_P2;Temp;Humidity;BMP_temperature;BMP_pressure;BME280_temperature;BME280_humidity;BME280_pressure;Samples;Min_cycle;Max_cycle;Signal;HPM_P1;HPM_P2
2022/08/17 00:00:27;;;;;;;;;;;;;;;21.90;29.04;97341.25;4933102;29;1989;-76
2022/08/17 00:02:55;;;;;;;;;;;;;;;21.93;29.08;97339.53;4938907;29;1000;-77
2022/08/17 00:05:21;;;;;;;;;;;;;;;21.98;28.83;97331.22;4939068;29;1003;-77
2022/08/17 00:07:46;;;;;;;;;;;;;;;21.78;29.39;97333.63;4938774;29;942;-77
2022/08/17 00:10:12;;;;;;;;;;;;;;;22.08;29.06;97326.41;4939119;29;1004;-77
2022/08/17 00:12:38;;;;;;;;;;;;;;;21.97;29.04;97320.38;4938983;29;990;-77
2022/08/17 00:15:04;;;;;;;;;;;;;;;22.07;28.84;97313.47;4938885;29;990;-77
2022/08/17 00:17:29;;;;;;;;;;;;;;;21.81;29.27;97310.84;4986996;28;983;-77
2022/08/17 00:19:55;;;;;;;;;;;;;;;22.14;28.92;97309.63;4998768;28;1071;-76
2022/08/17 00:22:20;;;;;;;;;;;;;;;22.02;28.83;97309.22;4998727;28;1985;-77
2022/08/17 00:24:46;;;;;;;;;;;;;;;21.79;29.24;97306.88;4976947;28;1276;-77
2022/08/17 00:27:11;;;;;;;;;;;;;;;22.21;28.69;97309.31;4976833;28;1274;-77
2022/08/17 00:29:37;;;;;;;;;;;;;;;22.04;28.85;97300.25;4977175;28;978;-77
2022/08/17 00:32:02;;;;;;;;;;;;;;;22.03;29.11;97298.69;4977193;28;900;-77
2022/08/17 00:34:28;;;;;;;;;;;;;;;22.18;29.03;97291.22;4977147;28;958;-77
2022/08/17 00:36:53;;;;;;;;;;;;;;;22.09;29.14;97291.13;4977189;28;953;-77
2022/08/17 00:39:18;;;;;;;;;;;;;;;22.14;29.25;97293.41;4976578;28;930;-77
2022/08/17 00:41:44;;;;;;;;;;;;;;;22.00;29.33;97288.25;4976624;28;1910;-77
2022/08/17 00:44:10;;;;;;;;;;;;;;;21.90;29.63;97289.47;4976595;28;1051;-78
2022/08/17 00:46:38;;;;;;;;;;;;;;;21.78;30.08;97271.31;4977052;28;962;-77
2022/08/17 00:49:04;;;;;;;;;;;;;;;22.07;29.79;97290.81;4977044;28;1050;-78
2022/08/17 00:51:31;;;;;;;;;;;;;;;22.00;29.88;97282.59;4976811;28;969;-77
2022/08/17 00:53:58;;;;;;;;;;;;;;;21.98;30.16;97285.13;4976742;28;969;-77
2022/08/17 00:56:35;;;;;;;;;;;;;;;22.11;29.72;97280.16;4937346;29;982;-77
2022/08/17 00:59:01;;;;;;;;;;;;;;;22.11;29.83;97277.31;4938087;29;923;-77
2022/08/17 01:01:27;;;;;;;;;;;;;;;22.10;30.14;97293.53;4900099;29;1969;-77
2022/08/17 01:03:53;;;;;;;;;;;;;;;22.30;29.75;97283.84;4900298;29;1054;-77
2022/08/17 01:06:18;;;;;;;;;;;;;;;21.95;30.06;97286.03;4843996;29;980;-77
2022/08/17 01:08:44;;;;;;;;;;;;;;;22.01;30.28;97295.50;4844341;29;964;-77
2022/08/17 01:11:09;;;;;;;;;;;;;;;22.01;30.05;97287.00;4844086;29;969;-77
2022/08/17 01:13:36;;;;;;;;;;;;;;;22.00;30.20;97289.06;4844086;29;969;-76
2022/08/17 01:16:05;;;;;;;;;;;;;;;21.93;30.49;97283.69;4844220;29;1053;-77
2022/08/17 01:18:31;;;;;;;;;;;;;;;22.02;30.40;97294.25;4844045;29;962;-77
2022/08/17 01:20:57;;;;;;;;;;;;;;;21.82;30.33;97278.44;4843627;29;2050;-77
2022/08/17 01:23:23;;;;;;;;;;;;;;;21.94;30.27;97278.78;4844307;29;1182;-77
2022/08/17 01:25:49;;;;;;;;;;;;;;;22.05;29.96;97284.81;4843850;29;1078;-77
2022/08/17 01:28:15;;;;;;;;;;;;;;;22.16;30.02;97284.44;4857080;29;1231;-77
2022/08/17 01:30:41;;;;;;;;;;;;;;;21.84;30.24;97281.56;4862156;29;1070;-77
2022/08/17 01:33:10;;;;;;;;;;;;;;;21.97;30.20;97286.38;4861925;29;981;-77
2022/08/17 01:35:36;;;;;;;;;;;;;;;21.92;30.48;97284.16;4862492;29;1010;-78
2022/08/17 01:38:01;;;;;;;;;;;;;;;22.15;30.13;97275.13;4897244;29;975;-78
2022/08/17 01:40:46;;;;;;;;;;;;;;;22.22;29.81;97280.50;4937101;29;968;-77
2022/08/17 01:43:13;;;;;;;;;;;;;;;22.15;29.85;97277.97;4899347;29;925;-77
2022/08/17 01:45:41;;;;;;;;;;;;;;;21.98;30.33;97273.78;4899281;29;1028;-77
2022/08/17 01:48:06;;;;;;;;;;;;;;;22.14;30.33;97270.72;4877087;29;941;-77
2022/08/17 01:50:33;;;;;;;;;;;;;;;22.21;29.83;97273.25;4843759;29;980;-77
2022/08/17 01:53:01;;;;;;;;;;;;;;;22.27;29.68;97271.41;4843114;29;1065;-77
2022/08/17 01:55:31;;;;;;;;;;;;;;;22.20;29.92;97279.41;4824992;29;985;-77
2022/08/17 01:57:56;;;;;;;;;;;;;;;21.98;30.14;97276.63;4824980;29;929;-77
2022/08/17 02:00:22;;;;;;;;;;;;;;;22.18;30.05;97279.09;4806922;29;938;-77
2022/08/17 02:02:47;;;;;;;;;;;;;;;22.11;29.97;97266.00;4824380;29;1915;-77
2022/08/17 02:05:13;;;;;;;;;;;;;;;21.81;30.45;97271.19;4830706;29;996;-77
2022/08/17 02:07:38;;;;;;;;;;;;;;;22.07;29.94;97266.13;4842512;29;984;-77
2022/08/17 02:10:04;;;;;;;;;;;;;;;22.02;29.89;97266.72;4843274;29;1016;-77
2022/08/17 02:12:30;;;;;;;;;;;;;;;22.03;30.14;97276.00;4843372;29;945;-77
2022/08/17 02:14:55;;;;;;;;;;;;;;;22.11;29.87;97271.66;4824566;29;970;-77
2022/08/17 02:17:21;;;;;;;;;;;;;;;21.93;30.30;97272.34;4824853;29;1267;-77
2022/08/17 02:19:46;;;;;;;;;;;;;;;21.92;30.10;97276.44;4825153;29;997;-77
2022/08/17 02:22:11;;;;;;;;;;;;;;;22.21;29.80;97276.09;4825200;29;1908;-78
2022/08/17 02:24:37;;;;;;;;;;;;;;;21.95;30.00;97274.69;4824578;29;1127;-78
2022/08/17 02:27:03;;;;;;;;;;;;;;;21.98;30.22;97265.28;4826795;29;1027;-77
2022/08/17 02:29:28;;;;;;;;;;;;;;;22.07;29.91;97273.81;4824505;29;1198;-77
2022/08/17 02:31:55;;;;;;;;;;;;;;;21.99;30.34;97278.19;4856296;29;948;-77
2022/08/17 02:34:20;;;;;;;;;;;;;;;22.09;29.91;97276.97;4861221;29;1194;-77
2022/08/17 02:36:45;;;;;;;;;;;;;;;22.13;29.72;97274.03;4861512;29;981;-77
2022/08/17 02:39:11;;;;;;;;;;;;;;;22.11;29.96;97277.31;4861556;29;936;-77
2022/08/17 02:41:37;;;;;;;;;;;;;;;22.14;29.82;97276.41;4861266;29;1978;-77
2022/08/17 02:44:04;;;;;;;;;;;;;;;21.79;30.47;97276.50;4861480;29;972;-77
2022/08/17 02:46:31;;;;;;;;;;;;;;;21.78;30.14;97272.09;4864925;29;907;-77
2022/08/17 02:48:56;;;;;;;;;;;;;;;21.93;29.91;97282.88;4893685;29;941;-77
2022/08/17 02:51:22;;;;;;;;;;;;;;;22.07;29.69;97293.63;4898550;29;1033;-77
2022/08/17 02:53:47;;;;;;;;;;;;;;;21.91;29.98;97285.38;4898729;29;966;-76
2022/08/17 02:56:13;;;;;;;;;;;;;;;21.85;29.96;97282.38;4927004;29;941;-77
2022/08/17 02:58:38;;;;;;;;;;;;;;;22.10;29.48;97281.38;4936456;29;990;-78
2022/08/17 03:01:04;;;;;;;;;;;;;;;21.79;30.01;97293.50;4981468;28;1899;-77
2022/08/17 03:03:29;;;;;;;;;;;;;;;22.00;29.77;97293.94;4996491;28;1037;-78
2022/08/17 03:05:55;;;;;;;;;;;;;;;22.08;29.62;97295.25;4996089;28;900;-78
2022/08/17 03:08:22;;;;;;;;;;;;;;;21.90;29.67;97286.63;4978422;28;951;-77
2022/08/17 03:10:47;;;;;;;;;;;;;;;22.02;29.63;97292.22;4996714;28;935;-77
2022/08/17 03:13:13;;;;;;;;;;;;;;;22.11;29.32;97299.97;4996711;28;1000;-77
2022/08/17 03:15:39;;;;;;;;;;;;;;;22.02;29.35;97291.41;4977993;28;1161;-77
2022/08/17 03:18:05;;;;;;;;;;;;;;;21.96;29.74;97293.28;4996261;28;953;-77
2022/08/17 03:20:31;;;;;;;;;;;;;;;22.02;29.32;97297.06;4998953;28;887;-77
2022/08/17 03:22:56;;;;;;;;;;;;;;;22.02;29.35;97292.22;4999812;28;1914;-77
2022/08/17 03:25:23;;;;;;;;;;;;;;;22.17;29.26;97303.78;5000084;28;977;-77
2022/08/17 03:27:48;;;;;;;;;;;;;;;21.95;29.24;97297.38;4981914;28;1098;-77
2022/08/17 03:30:14;;;;;;;;;;;;;;;21.88;29.84;97297.66;5000203;28;903;-77
2022/08/17 03:32:40;;;;;;;;;;;;;;;21.90;29.75;97300.78;4981673;28;910;-77
2022/08/17 03:35:06;;;;;;;;;;;;;;;21.92;29.75;97303.97;5000183;28;933;-77
2022/08/17 03:37:31;;;;;;;;;;;;;;;21.98;29.55;97302.13;4949119;28;988;-77
2022/08/17 03:39:57;;;;;;;;;;;;;;;21.81;29.72;97305.19;5000027;28;985;-77
2022/08/17 03:42:23;;;;;;;;;;;;;;;21.85;29.78;97305.81;5000185;28;1992;-77
2022/08/17 03:44:49;;;;;;;;;;;;;;;22.05;29.35;97313.16;4982360;28;1013;-77
2022/08/17 03:58:10;;;;;;;;;;;;;;;21.88;29.25;97315.44;4977294;28;1063;-77
2022/08/17 04:00:36;;;;;;;;;;;;;;;21.71;29.75;97316.88;4977219;28;1902;-77
2022/08/17 04:03:01;;;;;;;;;;;;;;;21.92;29.56;97318.13;4919969;29;988;-77
2022/08/17 04:05:27;;;;;;;;;;;;;;;21.98;29.31;97317.06;4919936;29;1238;-77
2022/08/17 04:07:52;;;;;;;;;;;;;;;21.82;29.47;97312.41;4920050;29;935;-77
2022/08/17 04:10:18;;;;;;;;;;;;;;;21.63;30.02;97309.94;4919586;29;963;-77
2022/08/17 04:12:48;;;;;;;;;;;;;;;21.98;29.17;97319.91;4903667;29;901;-77
2022/08/17 04:15:13;;;;;;;;;;;;;;;21.83;29.63;97319.66;4904263;29;983;-77
2022/08/17 04:17:39;;;;;;;;;;;;;;;21.89;29.34;97321.88;4919467;29;1097;-77
2022/08/17 04:20:05;;;;;;;;;;;;;;;21.93;29.36;97326.16;4919701;29;1056;-77
2022/08/17 04:22:30;;;;;;;;;;;;;;;21.77;29.42;97332.84;4919175;29;1918;-77
2022/08/17 04:24:56;;;;;;;;;;;;;;;22.15;29.01;97334.63;4919603;29;1027;-77
2022/08/17 04:27:21;;;;;;;;;;;;;;;22.13;29.16;97336.38;4919487;29;989;-77
2022/08/17 04:29:46;;;;;;;;;;;;;;;22.16;28.85;97336.22;4936075;29;987;-77
2022/08/17 04:32:12;;;;;;;;;;;;;;;21.79;29.41;97335.97;4937304;29;999;-77
2022/08/17 04:34:38;;;;;;;;;;;;;;;21.79;29.35;97335.97;4952927;29;936;-77
2022/08/17 04:37:03;;;;;;;;;;;;;;;21.73;29.77;97332.16;4957410;29;913;-77
2022/08/17 04:39:30;;;;;;;;;;;;;;;21.94;29.12;97335.44;4957142;29;1132;-76
2022/08/17 04:42:15;;;;;;;;;;;;;;;21.81;29.27;97339.16;4964850;28;1906;-76
2022/08/17 04:44:41;;;;;;;;;;;;;;;21.71;29.68;97340.34;4965428;28;1181;-76
2022/08/17 04:47:07;;;;;;;;;;;;;;;21.88;29.39;97342.97;4965895;28;1251;-77
2022/08/17 04:49:33;;;;;;;;;;;;;;;22.06;28.92;97343.06;4976839;28;1026;-77
2022/08/17 04:51:59;;;;;;;;;;;;;;;21.99;29.12;97346.19;4976600;28;978;-78
2022/08/17 04:54:24;;;;;;;;;;;;;;;22.08;29.15;97346.22;4976647;28;1021;-77
2022/08/17 04:56:50;;;;;;;;;;;;;;;22.01;29.09;97346.50;4976622;28;1034;-77
2022/08/17 04:59:19;;;;;;;;;;;;;;;22.04;29.32;97351.25;4976704;28;918;-76
2022/08/17 05:01:45;;;;;;;;;;;;;;;21.91;29.58;97342.03;4976488;28;1986;-77
2022/08/17 05:04:21;;;;;;;;;;;;;;;22.02;29.08;97345.22;4996344;28;892;-77
2022/08/17 05:06:47;;;;;;;;;;;;;;;21.83;29.50;97353.63;4997774;28;975;-77
2022/08/17 05:09:12;;;;;;;;;;;;;;;22.08;29.14;97351.91;4996613;28;946;-77
2022/08/17 05:11:38;;;;;;;;;;;;;;;21.98;29.31;97358.75;4997925;28;888;-77
2022/08/17 05:14:03;;;;;;;;;;;;;;;21.93;29.17;97365.03;4963692;28;892;-77
2022/08/17 05:16:29;;;;;;;;;;;;;;;21.63;29.94;97367.34;4997667;28;1213;-77
2022/08/17 05:18:54;;;;;;;;;;;;;;;21.74;29.82;97362.06;4997991;28;992;-77
2022/08/17 05:21:20;;;;;;;;;;;;;;;21.91;29.68;97359.03;4997748;28;1902;-77
2022/08/17 05:23:45;;;;;;;;;;;;;;;22.02;29.33;97371.53;5008702;28;1136;-77
2022/08/17 05:26:12;;;;;;;;;;;;;;;21.73;29.74;97373.84;5017054;28;1114;-77
2022/08/17 05:28:37;;;;;;;;;;;;;;;21.72;29.70;97380.78;4995311;28;969;-76
2022/08/17 05:31:03;;;;;;;;;;;;;;;22.10;29.46;97372.88;4995129;28;1042;-77
2022/08/17 05:33:30;;;;;;;;;;;;;;;22.11;29.46;97379.31;4995056;28;1036;-77
2022/08/17 05:35:56;;;;;;;;;;;;;;;21.93;29.46;97373.53;4962678;28;1044;-77
2022/08/17 05:38:22;;;;;;;;;;;;;;;22.12;29.50;97375.22;4994935;28;1036;-77
2022/08/17 05:40:47;;;;;;;;;;;;;;;21.94;29.53;97370.22;4994823;28;1906;-76
2022/08/17 05:43:13;;;;;;;;;;;;;;;22.09;29.23;97376.94;4994976;28;1049;-77
2022/08/17 05:45:39;;;;;;;;;;;;;;;22.02;29.63;97376.38;4995129;28;1025;-77
2022/08/17 05:48:06;;;;;;;;;;;;;;;21.95;29.75;97371.78;4995122;28;1183;-77
2022/08/17 05:50:33;;;;;;;;;;;;;;;21.79;29.86;97384.13;4955809;29;1032;-77
2022/08/17 05:52:58;;;;;;;;;;;;;;;21.95;29.59;97379.50;4945463;29;1140;-77
2022/08/17 05:55:29;;;;;;;;;;;;;;;21.76;30.13;97382.22;4955016;29;1334;-77
2022/08/17 05:58:11;;;;;;;;;;;;;;;22.06;29.62;97379.88;4956343;29;975;-77
2022/08/17 06:00:42;;;;;;;;;;;;;;;21.72;30.11;97380.78;4940002;29;982;-77
2022/08/17 06:03:10;;;;;;;;;;;;;;;21.90;30.16;97374.44;4931231;29;1121;-77
2022/08/17 06:05:39;;;;;;;;;;;;;;;22.14;29.79;97384.06;4920640;29;1726;-77
2022/08/17 06:08:13;;;;;;;;;;;;;;;22.22;29.64;97379.69;4936794;29;975;-77
2022/08/17 06:10:56;;;;;;;;;;;;;;;22.18;29.59;97384.72;4936746;29;982;-77
2022/08/17 06:13:40;;;;;;;;;;;;;;;22.11;30.17;97379.31;4936628;29;979;-77
2022/08/17 06:16:10;;;;;;;;;;;;;;;22.05;30.19;97375.47;4936695;29;959;-78
2022/08/17 06:18:39;;;;;;;;;;;;;;;22.12;29.81;97375.22;4936496;29;1049;-76
2022/08/17 06:21:05;;;;;;;;;;;;;;;22.10;30.17;97377.72;4956542;28;1910;-77
2022/08/17 06:23:35;;;;;;;;;;;;;;;22.18;30.07;97384.72;4996839;28;1581;-77
2022/08/17 06:26:02;;;;;;;;;;;;;;;22.26;30.04;97386.00;4997143;28;972;-77
2022/08/17 06:28:39;;;;;;;;;;;;;;;22.26;30.11;97374.69;4996441;28;960;-77
2022/08/17 06:31:06;;;;;;;;;;;;;;;22.26;29.87;97373.88;4989567;28;1156;-77
2022/08/17 06:33:33;;;;;;;;;;;;;;;22.34;29.95;97381.66;4978380;28;913;-77
2022/08/17 06:36:13;;;;;;;;;;;;;;;22.25;30.22;97381.59;4977928;28;1523;-77
2022/08/17 06:38:41;;;;;;;;;;;;;;;22.14;30.27;97377.63;4994133;28;1034;-77
2022/08/17 06:41:12;;;;;;;;;;;;;;;22.13;30.52;97381.72;4977825;28;1910;-77
2022/08/17 06:43:57;;;;;;;;;;;;;;;21.95;30.55;97382.34;4994263;28;946;-77
2022/08/17 06:46:24;;;;;;;;;;;;;;;22.11;30.69;97379.31;4994413;28;1027;-76
2022/08/17 06:49:10;;;;;;;;;;;;;;;22.33;30.34;97380.09;4978335;28;994;-77
2022/08/17 06:51:49;;;;;;;;;;;;;;;22.38;30.34;97387.16;4977804;28;996;-77
2022/08/17 06:54:27;;;;;;;;;;;;;;;22.31;30.22;97376.13;4956611;28;942;-77
2022/08/17 06:57:01;;;;;;;;;;;;;;;22.41;30.13;97385.47;4959203;28;1066;-77
2022/08/17 06:59:49;;;;;;;;;;;;;;;22.33;30.12;97377.25;4943083;29;1016;-77
2022/08/17 07:02:17;;;;;;;;;;;;;;;22.24;30.23;97382.88;4970479;28;1907;-77
2022/08/17 07:04:43;;;;;;;;;;;;;;;22.26;30.43;97388.84;4978574;28;949;-77
2022/08/17 07:09:53;;;;;;;;;;;;;;;22.34;30.38;97380.88;4964614;28;909;-77
2022/08/17 07:12:21;;;;;;;;;;;;;;;22.35;30.44;97382.44;4883292;29;1071;-77
2022/08/17 07:14:51;;;;;;;;;;;;;;;22.00;30.67;97376.88;4867608;29;978;-77
2022/08/17 07:17:17;;;;;;;;;;;;;;;22.16;30.44;97380.75;4901591;29;1360;-77
2022/08/17 07:19:44;;;;;;;;;;;;;;;22.32;30.19;97384.16;4886099;29;993;-77
2022/08/17 07:22:15;;;;;;;;;;;;;;;22.14;30.62;97394.63;4901626;29;1907;-77
2022/08/17 07:24:43;;;;;;;;;;;;;;;22.16;30.37;97390.06;4864298;29;1399;-77
2022/08/17 07:27:10;;;;;;;;;;;;;;;22.26;30.22;97388.84;4864448;29;1025;-77
2022/08/17 07:29:46;;;;;;;;;;;;;;;22.24;30.18;97391.38;4833377;29;1071;-77
2022/08/17 07:32:13;;;;;;;;;;;;;;;22.40;30.23;97389.56;4848779;29;1079;-77
2022/08/17 07:34:56;;;;;;;;;;;;;;;22.34;30.27;97392.22;4827660;29;991;-77
2022/08/17 07:37:22;;;;;;;;;;;;;;;22.08;30.78;97389.53;4827194;29;1026;-77
2022/08/17 07:39:47;;;;;;;;;;;;;;;22.25;30.59;97395.78;4827479;29;1035;-76
2022/08/17 07:42:13;;;;;;;;;;;;;;;22.15;30.69;97391.31;4792651;29;1907;-77
2022/08/17 07:44:49;;;;;;;;;;;;;;;22.40;30.21;97390.34;4838906;29;1136;-77
2022/08/17 07:49:58;;;;;;;;;;;;;;;22.33;30.28;97388.59;4809222;29;1019;-77
2022/08/17 07:52:28;;;;;;;;;;;;;;;22.15;30.39;97391.31;4826926;29;1042;-77
2022/08/17 07:54:54;;;;;;;;;;;;;;;22.14;30.39;97384.06;4851613;29;987;-77
2022/08/17 07:57:22;;;;;;;;;;;;;;;22.34;30.19;97381.66;4866971;29;1035;-77
2022/08/17 07:59:59;;;;;;;;;;;;;;;22.18;30.38;97379.06;4882226;29;961;-77
2022/08/17 08:02:28;;;;;;;;;;;;;;;22.24;30.76;97393.41;4882117;29;1911;-77
2022/08/17 08:05:01;;;;;;;;;;;;;;;22.28;30.38;97396.91;4903851;29;929;-77
2022/08/17 08:07:30;;;;;;;;;;;;;;;22.19;30.44;97386.31;4903221;29;1375;-77
2022/08/17 08:09:58;;;;;;;;;;;;;;;22.39;30.27;97393.66;4904268;29;1080;-77
2022/08/17 08:12:24;;;;;;;;;;;;;;;22.12;30.67;97386.56;4916532;29;1536;-77
2022/08/17 08:14:59;;;;;;;;;;;;;;;22.28;30.34;97389.19;4900989;29;893;-77
2022/08/17 08:17:28;;;;;;;;;;;;;;;22.35;30.30;97383.22;4878710;29;927;-76
2022/08/17 08:19:54;;;;;;;;;;;;;;;22.15;30.85;97391.31;4867983;29;967;-77
2022/08/17 08:22:26;;;;;;;;;;;;;;;22.39;30.24;97387.97;4862376;29;1907;-77
2022/08/17 08:24:51;;;;;;;;;;;;;;;22.25;30.67;97378.78;4884403;29;991;-76
2022/08/17 08:27:26;;;;;;;;;;;;;;;22.34;30.17;97387.31;4919426;29;1104;-76
2022/08/17 08:29:53;;;;;;;;;;;;;;;22.26;30.55;97388.84;4919526;29;1458;-76
2022/08/17 08:32:53;;;;;;;;;;;;;;;22.42;30.44;97384.19;4897509;29;1554;-76
2022/08/17 08:35:25;;;;;;;;;;;;;;;22.44;30.27;97391.00;4860585;29;1203;-77
2022/08/17 08:37:54;;;;;;;;;;;;;;;22.21;30.50;97380.16;4825330;29;2389;-77
2022/08/17 08:40:38;;;;;;;;;;;;;;;22.43;30.03;97399.94;4823769;29;1242;-77
2022/08/17 08:43:12;;;;;;;;;;;;;;;22.42;30.05;97387.81;4825504;29;2274;-77
2022/08/17 08:45:56;;;;;;;;;;;;;;;22.39;30.27;97385.16;4825875;29;1334;-77
2022/08/17 08:48:41;;;;;;;;;;;;;;;22.27;30.11;97379.09;4870029;29;1054;-77
2022/08/17 08:51:18;;;;;;;;;;;;;;;22.23;30.51;97386.16;4869766;29;1314;-77
2022/08/17 08:53:47;;;;;;;;;;;;;;;22.16;30.59;97384.38;4873270;29;1328;-77
2022/08/17 08:56:24;;;;;;;;;;;;;;;22.32;30.43;97381.31;4885837;29;1191;-77
2022/08/17 08:58:49;;;;;;;;;;;;;;;22.24;30.35;97387.75;4825600;29;1322;-77
2022/08/17 09:01:30;;;;;;;;;;;;;;;22.02;30.61;97382.06;4825988;29;1986;-76
2022/08/17 09:03:57;;;;;;;;;;;;;;;22.28;30.41;97377.84;4850940;29;1099;-76
2022/08/17 09:06:43;;;;;;;;;;;;;;;22.40;30.47;97372.53;4833665;29;1389;-76
2022/08/17 09:09:09;;;;;;;;;;;;;;;22.53;30.14;97387.41;4867457;29;1211;-76
2022/08/17 09:11:39;;;;;;;;;;;;;;;22.19;30.41;97382.69;4890225;29;1312;-77
2022/08/17 09:14:04;;;;;;;;;;;;;;;22.23;30.35;97384.13;4890877;29;1233;-77
2022/08/17 09:16:34;;;;;;;;;;;;;;;22.27;30.23;97393.25;4897160;29;1258;-76
2022/08/17 09:19:20;;;;;;;;;;;;;;;22.27;30.51;97381.91;4893173;29;1008;-76
2022/08/17 09:21:51;;;;;;;;;;;;;;;22.09;30.55;97381.81;4896016;29;1972;-75
2022/08/17 09:24:31;;;;;;;;;;;;;;;22.38;30.32;97383.53;4895182;29;1235;-76
2022/08/17 09:27:05;;;;;;;;;;;;;;;22.41;29.89;97386.25;4914748;29;1042;-76
2022/08/17 09:29:34;;;;;;;;;;;;;;;22.32;30.27;97383.38;4928783;29;939;-76
2022/08/17 09:32:02;;;;;;;;;;;;;;;22.39;30.15;97385.16;4925472;29;1013;-77
2022/08/17 09:34:31;;;;;;;;;;;;;;;22.27;30.28;97387.59;4910916;29;971;-76
2022/08/17 09:37:04;;;;;;;;;;;;;;;22.43;30.24;97374.44;4937613;29;1032;-76
2022/08/17 09:39:35;;;;;;;;;;;;;;;22.49;30.18;97384.72;4936998;29;958;-76
2022/08/17 09:42:00;;;;;;;;;;;;;;;22.22;30.42;97396.69;4899344;29;1973;-76
2022/08/17 09:44:26;;;;;;;;;;;;;;;22.30;30.00;97380.22;4899214;29;924;-76
2022/08/17 09:46:54;;;;;;;;;;;;;;;22.35;30.35;97388.91;4898921;29;934;-77
2022/08/17 09:49:29;;;;;;;;;;;;;;;22.47;30.22;97390.03;4899327;29;918;-76
2022/08/17 09:52:18;;;;;;;;;;;;;;;21.98;31.01;97379.38;4898877;29;1074;-77
2022/08/17 09:54:43;;;;;;;;;;;;;;;22.05;30.57;97376.25;4880002;29;1030;-77
2022/08/17 09:57:09;;;;;;;;;;;;;;;22.29;30.54;97396.44;4883359;29;1512;-77
2022/08/17 09:59:43;;;;;;;;;;;;;;;22.28;30.26;97382.72;4883458;29;1501;-77
2022/08/17 10:02:15;;;;;;;;;;;;;;;22.43;29.87;97389.41;4880041;29;1903;-77
2022/08/17 10:04:54;;;;;;;;;;;;;;;22.41;29.91;97388.28;4887403;29;991;-76
2022/08/17 10:07:26;;;;;;;;;;;;;;;22.39;29.93;97371.75;4901809;29;1015;-76
2022/08/17 10:09:57;;;;;;;;;;;;;;;22.54;29.86;97381.28;4901719;29;994;-76
2022/08/17 10:12:26;;;;;;;;;;;;;;;22.47;30.16;97369.41;4922147;29;977;-76
2022/08/17 10:15:00;;;;;;;;;;;;;;;22.55;29.72;97380.00;4920084;29;1691;-76
2022/08/17 10:17:31;;;;;;;;;;;;;;;22.40;29.92;97378.22;4936983;29;1207;-76
2022/08/17 10:20:03;;;;;;;;;;;;;;;22.46;30.24;97376.34;4921168;29;1335;-76
2022/08/17 10:27:58;;;;;;;;;;;;;;;22.47;30.00;97366.59;4870976;29;1719;-75
2022/08/17 10:30:25;;;;;;;;;;;;;;;22.54;29.84;97366.31;4867220;29;1487;-78
2022/08/17 10:32:58;;;;;;;;;;;;;;;22.45;30.18;97369.09;4901070;29;1629;-76
2022/08/17 10:35:32;;;;;;;;;;;;;;;22.45;30.02;97366.28;4899579;29;1518;-76
2022/08/17 10:38:04;;;;;;;;;;;;;;;22.47;29.95;97366.59;4901327;29;1639;-76
2022/08/17 10:40:35;;;;;;;;;;;;;;;22.30;30.53;97364.00;4917398;29;1489;-77
2022/08/17 10:43:00;;;;;;;;;;;;;;;22.29;30.36;97353.91;4916590;29;1915;-76
2022/08/17 10:45:45;;;;;;;;;;;;;;;22.44;30.36;97353.34;4917250;29;1466;-77
2022/08/17 10:48:23;;;;;;;;;;;;;;;22.33;30.33;97348.91;4895409;29;1569;-77
2022/08/17 10:50:54;;;;;;;;;;;;;;;22.28;30.64;97349.50;4898195;29;961;-77
2022/08/17 10:53:47;;;;;;;;;;;;;;;22.35;30.24;97354.88;4898379;29;1015;-77
2022/08/17 10:56:12;;;;;;;;;;;;;;;22.53;30.01;97336.34;4897125;29;1382;-76
2022/08/17 10:58:41;;;;;;;;;;;;;;;22.38;30.39;97343.84;4898416;29;1009;-76
2022/08/17 11:01:11;;;;;;;;;;;;;;;22.35;30.39;97346.38;4898084;29;1899;-77
2022/08/17 11:03:46;;;;;;;;;;;;;;;22.39;30.52;97348.28;4920148;29;907;-78
2022/08/17 11:06:13;;;;;;;;;;;;;;;22.49;30.29;97344.25;4920555;29;952;-77
2022/08/17 11:09:01;;;;;;;;;;;;;;;22.49;30.20;97335.75;4897956;29;1021;-77
2022/08/17 11:11:34;;;;;;;;;;;;;;;22.38;30.19;97341.03;4882502;29;952;-76
2022/08/17 11:14:19;;;;;;;;;;;;;;;22.33;30.41;97345.28;4897979;29;985;-77
2022/08/17 11:16:57;;;;;;;;;;;;;;;22.38;30.37;97338.19;4897532;29;1493;-77
2022/08/17 11:19:34;;;;;;;;;;;;;;;22.25;30.55;97341.13;4877559;29;1596;-77
2022/08/17 11:22:18;;;;;;;;;;;;;;;22.59;30.00;97343.81;4889024;29;1997;-78
2022/08/17 11:24:47;;;;;;;;;;;;;;;22.40;30.20;97344.19;4905067;29;1576;-77
2022/08/17 11:27:12;;;;;;;;;;;;;;;22.43;30.34;97334.75;4930149;28;1497;-77
2022/08/17 11:29:50;;;;;;;;;;;;;;;22.36;30.63;97339.44;4947603;29;1504;-77
2022/08/17 11:32:27;;;;;;;;;;;;;;;22.52;30.01;97337.63;4943201;29;1468;-77
2022/08/17 11:35:04;;;;;;;;;;;;;;;22.33;30.41;97339.63;4897699;29;1517;-77
2022/08/17 11:37:40;;;;;;;;;;;;;;;22.51;30.05;97338.88;4895154;29;1442;-77
2022/08/17 11:40:12;;;;;;;;;;;;;;;22.33;30.54;97329.06;4871516;29;1569;-77
2022/08/17 11:42:37;;;;;;;;;;;;;;;22.24;30.58;97337.53;4855950;29;1899;-77
2022/08/17 11:45:03;;;;;;;;;;;;;;;22.48;30.27;97334.13;4875174;29;1471;-77
2022/08/17 11:53:28;;;;;;;;;;;;;;;22.40;30.86;97342.16;4868872;29;1040;-77
2022/08/17 11:55:54;;;;;;;;;;;;;;;22.36;31.29;97378.34;4882175;29;970;-77
2022/08/17 11:58:28;;;;;;;;;;;;;;;22.58;30.97;97362.06;4899509;29;1682;-78
2022/08/17 12:00:55;;;;;;;;;;;;;;;22.60;31.59;97353.88;4919715;29;1903;-76
2022/08/17 12:03:23;;;;;;;;;;;;;;;22.52;31.61;97341.25;4919684;29;1110;-76
2022/08/17 12:05:49;;;;;;;;;;;;;;;22.17;31.75;97331.34;4946832;28;898;-77
2022/08/17 12:08:17;;;;;;;;;;;;;;;22.12;31.65;97329.88;4967367;28;1565;-76
2022/08/17 12:10:51;;;;;;;;;;;;;;;22.43;31.10;97337.59;4938217;29;1491;-77
2022/08/17 12:13:16;;;;;;;;;;;;;;;22.41;30.82;97340.09;4930756;29;1514;-77
2022/08/17 12:15:47;;;;;;;;;;;;;;;22.38;31.10;97336.16;4947759;29;1496;-76
2022/08/17 12:18:23;;;;;;;;;;;;;;;22.57;30.45;97325.66;4915530;29;1521;-77
2022/08/17 12:20:59;;;;;;;;;;;;;;;22.44;30.81;97327.84;4908038;29;1505;-77
2022/08/17 12:23:30;;;;;;;;;;;;;;;22.59;30.39;97317.50;4902545;29;1514;-77
2022/08/17 12:25:56;;;;;;;;;;;;;;;22.53;30.27;97319.34;4903463;29;1175;-77
2022/08/17 12:28:25;;;;;;;;;;;;;;;22.34;30.48;97307.97;4919612;29;1054;-76
2022/08/17 12:30:51;;;;;;;;;;;;;;;22.16;30.51;97312.75;4903299;29;1006;-76
2022/08/17 12:33:16;;;;;;;;;;;;;;;22.49;30.07;97301.72;4897612;29;1689;-76
2022/08/17 12:35:42;;;;;;;;;;;;;;;22.48;30.00;97311.47;4899882;29;1502;-77
2022/08/17 12:38:09;;;;;;;;;;;;;;;22.36;30.38;97316.00;4884159;29;1616;-76
2022/08/17 12:40:34;;;;;;;;;;;;;;;22.32;30.38;97310.47;4900489;29;1644;-76
2022/08/17 12:43:01;;;;;;;;;;;;;;;22.40;30.09;97310.19;4919205;29;1915;-77
2022/08/17 12:45:28;;;;;;;;;;;;;;;22.44;30.43;97305.94;4919221;29;967;-78
2022/08/17 12:48:09;;;;;;;;;;;;;;;22.29;30.37;97305.75;4918900;29;982;-76
2022/08/17 12:50:43;;;;;;;;;;;;;;;22.38;30.52;97307.00;4918862;29;964;-77
2022/08/17 12:53:12;;;;;;;;;;;;;;;22.24;30.45;97297.06;4902462;29;972;-77
2022/08/17 12:55:37;;;;;;;;;;;;;;;22.28;30.26;97292.03;4903089;29;1106;-77
2022/08/17 12:58:03;;;;;;;;;;;;;;;22.36;30.00;97293.31;4918567;29;956;-77
2022/08/17 13:00:32;;;;;;;;;;;;;;;22.42;30.09;97297.13;4899751;29;1028;-77
2022/08/17 13:02:58;;;;;;;;;;;;;;;22.19;30.68;97306.16;4915464;29;1907;-77
2022/08/17 13:05:28;;;;;;;;;;;;;;;22.60;29.82;97305.69;4934200;29;912;-77
2022/08/17 13:07:54;;;;;;;;;;;;;;;22.38;30.19;97307.81;4918637;29;1029;-77
2022/08/17 13:10:26;;;;;;;;;;;;;;;22.40;30.10;97310.97;4918712;29;989;-76
2022/08/17 13:12:52;;;;;;;;;;;;;;;22.33;30.24;97306.41;4914397;29;925;-77
2022/08/17 13:15:21;;;;;;;;;;;;;;;22.37;30.08;97306.22;4933236;29;1634;-77
2022/08/17 13:17:55;;;;;;;;;;;;;;;22.29;30.07;97311.41;4937333;29;1027;-76
2022/08/17 13:20:20;;;;;;;;;;;;;;;22.33;30.17;97306.41;4921575;29;1047;-76
2022/08/17 13:22:51;;;;;;;;;;;;;;;22.43;30.01;97306.41;4921246;29;2067;-76
2022/08/17 13:25:16;;;;;;;;;;;;;;;22.63;29.53;97309.59;4905381;29;2582;-76
2022/08/17 13:27:45;;;;;;;;;;;;;;;22.42;30.09;97313.34;4921171;29;957;-77
2022/08/17 13:30:11;;;;;;;;;;;;;;;22.40;30.08;97310.19;4921591;29;960;-77
2022/08/17 13:32:46;;;;;;;;;;;;;;;22.23;30.24;97318.94;4935624;29;924;-76
2022/08/17 13:35:30;;;;;;;;;;;;;;;22.36;30.33;97311.09;4936980;29;949;-77
2022/08/17 13:38:00;;;;;;;;;;;;;;;22.15;30.60;97317.63;4936967;29;997;-77